createdAt,value
2023-03-29T00:02:02.211Z,98366.91
2023-03-29T00:04:29.088Z,98365.31
2023-03-29T00:06:55.809Z,98392.16
2023-03-29T00:09:23.506Z,98374.50
2023-03-29T00:11:50.111Z,98371.94
2023-03-29T00:14:16.768Z,98379.50
2023-03-29T00:16:44.881Z,98381.22
2023-03-29T00:19:11.505Z,98387.94
2023-03-29T00:21:38.139Z,98378.69
2023-03-29T00:24:04.971Z,98384.69
2023-03-29T00:26:31.567Z,98399.94
2023-03-29T00:28:58.161Z,98406.59
2023-03-29T00:31:24.756Z,98406.56
2023-03-29T00:33:51.365Z,98420.81
2023-03-29T00:36:18.042Z,98415.78
2023-03-29T00:38:44.567Z,98434.16
2023-03-29T00:41:11.891Z,98412.31
2023-03-29T00:43:55.388Z,98423.28
2023-03-29T00:46:22.692Z,98412.09
2023-03-29T00:48:52.732Z,98419.03
2023-03-29T00:51:21.641Z,98427.34
2023-03-29T00:53:55.415Z,98425.59
2023-03-29T00:56:24.231Z,98427.41
2023-03-29T00:59:00.125Z,98426.59
2023-03-29T01:01:46.940Z,98429.06
2023-03-29T01:04:21.899Z,98434.09
2023-03-29T01:06:59.975Z,98427.09
2023-03-29T01:09:30.440Z,98418.63
2023-03-29T01:12:02.469Z,98412.94
2023-03-29T01:14:40.980Z,98417.72
2023-03-29T01:17:07.622Z,98432.97
2023-03-29T01:19:44.311Z,98412.59
2023-03-29T01:22:49.084Z,98430.34
2023-03-29T01:25:30.425Z,98416.88
2023-03-29T01:28:03.674Z,98432.97
2023-03-29T01:30:48.429Z,98434.66
2023-03-29T01:33:21.339Z,98426.38
2023-03-29T01:36:06.217Z,98432.13
2023-03-29T01:38:51.625Z,98457.31
2023-03-29T01:41:18.452Z,98448.97
2023-03-29T01:44:01.783Z,98469.22
2023-03-29T01:46:45.187Z,98448.06
2023-03-29T01:49:35.967Z,98453.22
2023-03-29T01:52:14.796Z,98458.31
2023-03-29T01:54:55.749Z,98452.47
2023-03-29T01:57:25.144Z,98454.13
2023-03-29T01:59:55.603Z,98446.44
2023-03-29T02:02:27.753Z,98461.78
2023-03-29T02:04:56.154Z,98463.34
2023-03-29T02:07:27.026Z,98467.59
2023-03-29T02:09:54.552Z,98478.63
2023-03-29T02:12:21.374Z,98467.69
2023-03-29T02:14:48.013Z,98478.53
2023-03-29T02:17:22.181Z,98476.09
2023-03-29T02:20:10.205Z,98482.72
2023-03-29T02:23:02.153Z,98473.72
2023-03-29T02:25:29.538Z,98495.50
2023-03-29T02:27:56.903Z,98505.47
2023-03-29T02:30:27.147Z,98497.25
2023-03-29T02:33:29.057Z,98509.78
2023-03-29T02:36:15.415Z,98507.16
2023-03-29T02:38:41.852Z,98520.59
2023-03-29T02:41:10.686Z,98526.41
2023-03-29T02:43:39.630Z,98522.91
2023-03-29T02:46:07.779Z,98523.72
2023-03-29T02:48:37.096Z,98530.41
2023-03-29T02:51:11.698Z,98543.03
2023-03-29T02:53:44.703Z,98535.50
2023-03-29T02:56:11.261Z,98536.31
2023-03-29T02:58:38.733Z,98536.97
2023-03-29T03:01:06.939Z,98541.31
2023-03-29T03:03:33.547Z,98543.88
2023-03-29T03:06:01.682Z,98542.78
2023-03-29T03:08:28.620Z,98550.44
2023-03-29T03:10:55.285Z,98559.53
2023-03-29T03:13:21.845Z,98551.09
2023-03-29T03:15:49.268Z,98552.84
2023-03-29T03:18:16.726Z,98562.28
2023-03-29T03:20:46.929Z,98565.47
2023-03-29T03:23:13.507Z,98564.66
2023-03-29T03:25:40.081Z,98566.09
2023-03-29T03:28:06.688Z,98569.56
2023-03-29T03:30:34.605Z,98557.47
2023-03-29T03:33:01.198Z,98588.72
2023-03-29T03:35:29.623Z,98580.44
2023-03-29T03:37:56.285Z,98587.25
2023-03-29T03:40:22.792Z,98582.16
2023-03-29T03:42:49.380Z,98583.09
2023-03-29T03:45:16.012Z,98592.22
2023-03-29T03:47:42.648Z,98599.00
2023-03-29T03:50:09.680Z,98607.50
2023-03-29T03:52:36.319Z,98592.09
2023-03-29T03:55:03.006Z,98602.25
2023-03-29T03:57:29.607Z,98608.88
2023-03-29T03:59:56.405Z,98624.72
2023-03-29T04:02:23.248Z,98607.72
2023-03-29T04:04:50.014Z,98617.81
2023-03-29T04:07:17.765Z,98607.47
2023-03-29T04:09:45.096Z,98605.00
2023-03-29T04:12:12.156Z,98606.81
2023-03-29T04:14:38.758Z,98600.84
2023-03-29T04:17:05.680Z,98605.75
2023-03-29T04:19:32.277Z,98625.78
2023-03-29T04:21:59.052Z,98620.88
2023-03-29T04:24:25.605Z,98614.22
2023-03-29T04:26:52.193Z,98633.59
2023-03-29T04:29:18.713Z,98628.50
2023-03-29T04:31:45.344Z,98626.03
2023-03-29T04:34:11.978Z,98639.47
2023-03-29T04:36:38.932Z,98646.94
2023-03-29T04:39:07.835Z,98648.66
2023-03-29T04:41:35.169Z,98646.19
2023-03-29T04:44:02.633Z,98653.09
2023-03-29T04:46:29.829Z,98649.50
2023-03-29T04:48:56.590Z,98656.25
2023-03-29T04:51:24.390Z,98656.16
2023-03-29T04:53:51.041Z,98667.44
2023-03-29T04:56:17.720Z,98654.53
2023-03-29T04:58:44.636Z,98655.91
2023-03-29T05:01:11.408Z,98663.47
2023-03-29T05:03:38.025Z,98660.38
2023-03-29T05:06:07.407Z,98663.06
2023-03-29T05:08:35.318Z,98667.94
2023-03-29T05:11:02.247Z,98656.16
2023-03-29T05:13:28.959Z,98664.16
2023-03-29T05:15:57.096Z,98668.34
2023-03-29T05:18:23.801Z,98675.34
2023-03-29T05:20:53.063Z,98666.25
2023-03-29T05:23:20.663Z,98668.03
2023-03-29T05:25:51.296Z,98668.78
2023-03-29T05:28:18.420Z,98672.53
2023-03-29T05:30:46.003Z,98666.88
2023-03-29T05:33:12.751Z,98688.84
2023-03-29T05:35:39.368Z,98667.97
2023-03-29T05:38:06.422Z,98690.72
2023-03-29T05:40:33.604Z,98697.56
2023-03-29T05:43:02.475Z,98689.19
2023-03-29T05:45:29.779Z,98704.53
2023-03-29T05:47:57.622Z,98697.56
2023-03-29T05:50:24.796Z,98687.19
2023-03-29T05:52:51.595Z,98690.50
2023-03-29T05:55:18.522Z,98699.13
2023-03-29T05:57:45.148Z,98699.03
2023-03-29T06:00:31.974Z,98713.19
2023-03-29T06:03:03.704Z,98715.13
2023-03-29T06:05:37.002Z,98715.13
2023-03-29T06:08:03.602Z,98730.53
2023-03-29T06:10:30.146Z,98720.31
2023-03-29T06:12:56.799Z,98710.31
2023-03-29T06:15:24.164Z,98727.22
2023-03-29T06:17:50.734Z,98735.88
2023-03-29T06:20:17.510Z,98726.03
2023-03-29T06:22:46.644Z,98731.38
2023-03-29T06:25:15.348Z,98741.72
2023-03-29T06:27:41.974Z,98744.16
2023-03-29T06:30:08.961Z,98751.22
2023-03-29T06:32:36.159Z,98750.47
2023-03-29T06:35:03.252Z,98751.63
2023-03-29T06:37:29.854Z,98758.38
2023-03-29T06:39:56.959Z,98761.03
2023-03-29T06:42:24.116Z,98770.75
2023-03-29T06:44:50.948Z,98770.09
2023-03-29T06:47:17.569Z,98767.91
2023-03-29T06:49:44.483Z,98774.06
2023-03-29T06:52:11.426Z,98765.97
2023-03-29T06:54:38.879Z,98775.28
2023-03-29T06:57:05.522Z,98769.94
2023-03-29T06:59:32.107Z,98781.38
2023-03-29T07:01:58.681Z,98778.03
2023-03-29T07:04:25.422Z,98775.28
2023-03-29T07:07:01.342Z,98790.72
2023-03-29T07:09:32.409Z,98784.69
2023-03-29T07:12:00.125Z,98790.97
2023-03-29T07:14:28.912Z,98808.47
2023-03-29T07:16:58.689Z,98807.53
2023-03-29T07:19:27.292Z,98807.66
2023-03-29T07:21:54.317Z,98807.97
2023-03-29T07:24:21.706Z,98818.03
2023-03-29T07:27:00.234Z,98819.47
2023-03-29T07:29:30.527Z,98818.47
2023-03-29T07:31:57.199Z,98817.50
2023-03-29T07:34:24.376Z,98818.69
2023-03-29T07:36:51.565Z,98830.97
2023-03-29T07:39:18.333Z,98837.28
2023-03-29T07:41:44.920Z,98839.78
2023-03-29T07:44:11.599Z,98838.22
2023-03-29T07:46:38.209Z,98841.78
2023-03-29T07:49:05.525Z,98856.31
2023-03-29T07:51:32.142Z,98875.69
2023-03-29T07:53:59.795Z,98870.31
2023-03-29T07:56:26.565Z,98876.53
2023-03-29T07:58:53.297Z,98878.34
2023-03-29T08:01:20.451Z,98873.81
2023-03-29T08:03:47.381Z,98875.69
2023-03-29T08:06:16.097Z,98869.19
2023-03-29T08:08:42.780Z,98875.34
2023-03-29T08:11:10.118Z,98876.34
2023-03-29T08:13:37.379Z,98872.63
2023-03-29T08:16:05.751Z,98881.56
2023-03-29T08:18:34.241Z,98876.19
2023-03-29T08:21:01.771Z,98872.56
2023-03-29T08:23:28.594Z,98885.47
2023-03-29T08:25:55.148Z,98875.22
2023-03-29T08:28:22.323Z,98880.56
2023-03-29T08:30:49.760Z,98891.25
2023-03-29T08:33:17.007Z,98888.28
2023-03-29T08:35:44.004Z,98900.06
2023-03-29T08:38:11.171Z,98897.88
2023-03-29T08:40:37.985Z,98906.00
